Montgomery Regional (Dannelly Field) Airport Montgomery US
ICAO: KMGM
IATA: MGM
Category: Large
Scheduled Services: Yes

Elevation: 221 ft
TransAlt. 18000 ft.

Airport Communications:
APP/DEP:118.85
ATIS:120.675
CLNC DEL:118.3
CTAF:119.7
GND:121.7
ARNG OPS:38.2
ANG OPS:27.68
ANNISTON RDO:122.2
SFA:122.85
TWR:119.7
UNICOM:122.95

KMGM Zoom In..

If you have problems with the map follow the link
https://www.worldairports.se/pages/airport.php?
ICAO=KMGM

Runways:

(A) RW 03 length 4011 ft width 150 ft
---- / hdg 34

(B) RW 10 length 9020 ft width 150 ft
ILS 109.90 / hdg 97

(C) RW 21 length 4011 ft width 150 ft
---- / hdg 214

(D) RW 28 length 9020 ft width 150 ft
ILS 108.50 / hdg 277

Location; KMGM
Day. 06 / Time. 12.53 Zulu
* Altimeter: 30.19
* Temperature: 07° c. 44.6°f.
* Wind from: 100° Speed 04 kn.
Dewpoint: 04° c.
Visibility: 10 Statute Miles.
Clouds: Clear (automated report).

KMGM 061253Z 10004KT 10SM CLR 07/04 A3019 RMK AO2 SLP222 T00670039


Wind From 100°
Speed 04 kn.

 
 
jpsmedia worldairports.se 2019   terms of use